Saint Michaels College, Vermont
Current Conditions -  °F | °C
As of 5:54 PM on Thursday 23 Oct 2014 (Local Time) from KBTV Reporting Station
Light Rain Light Rain  
Wind Chill: 39°   Ceiling: 600
Heat Index: 45°   Visibility: 10mi
Dew Point: 41°   Wind: 14mph
Humidity: 86%   Direction: 350°N
Pressure: 29.91"   Gusts: 22mph
Location:  44.5489°N, 73.1859°W
Report Text: KBTV 232154Z 35012G19KT 10SM -RA OVC006 07/05 A2991 RMK AO2 RAB26 SLP131 P0000 T00720050
Loading
Personal Weather Stations






























Interactive Weather Map
Tropical Storm Tracking
New forecast layout! Learn more

10-Day Weather Forecast

Advertisements
Track Severe Weather on mobile